Time;durP1;ratioP1;P1;durP2;ratioP2;P2;SDS_P1;SDS_P2;PMS_P1;PMS_P2;Temp;Humidity;BMP_temperature;BMP_pressure;BME280_temperature;BME280_humidity;BME280_pressure;Samples;Min_cycle;Max_cycle;Signal;HPM_P1;HPM_P2
2023/10/20 00:02:17;;;;;;;7.63;5.37;;;17.60;62.90;;;;;;4981475;28;20478;-78
2023/10/20 00:04:45;;;;;;;5.93;4.70;;;17.50;62.70;;;;;;4982743;28;20462;-77
2023/10/20 00:07:13;;;;;;;7.40;5.73;;;17.50;62.80;;;;;;4974817;28;20490;-78
2023/10/20 00:09:42;;;;;;;6.53;5.23;;;17.50;62.80;;;;;;4974208;28;20481;-78
2023/10/20 00:12:11;;;;;;;6.57;5.37;;;17.50;62.70;;;;;;4973143;28;20474;-78
2023/10/20 00:14:39;;;;;;;6.27;5.60;;;17.60;62.80;;;;;;4988339;28;20473;-78
2023/10/20 00:17:09;;;;;;;7.60;5.30;;;17.60;62.80;;;;;;4973843;28;20457;-78
2023/10/20 00:19:38;;;;;;;8.60;5.43;;;17.50;62.80;;;;;;4986683;28;20453;-78
2023/10/20 00:22:07;;;;;;;6.03;5.47;;;17.50;62.80;;;;;;4987631;28;20472;-78
2023/10/20 00:24:35;;;;;;;7.10;5.37;;;17.50;62.70;;;;;;4978841;28;20537;-78
2023/10/20 00:27:03;;;;;;;6.40;5.30;;;17.60;62.90;;;;;;4978064;28;20489;-78
2023/10/20 00:29:31;;;;;;;6.60;5.70;;;17.50;62.60;;;;;;4972927;28;20550;-78
2023/10/20 00:31:59;;;;;;;6.90;5.70;;;17.50;62.70;;;;;;4977450;28;20467;-78
2023/10/20 00:34:30;;;;;;;5.77;5.17;;;17.50;62.60;;;;;;4972042;28;20457;-78
2023/10/20 00:37:00;;;;;;;6.93;5.23;;;17.50;62.60;;;;;;4975643;28;20522;-79
2023/10/20 00:39:29;;;;;;;9.63;5.53;;;17.50;63.30;;;;;;4978250;28;20513;-78
2023/10/20 00:41:57;;;;;;;7.70;6.10;;;17.50;62.70;;;;;;4978112;28;20470;-79
2023/10/20 00:44:25;;;;;;;5.77;5.17;;;17.50;62.80;;;;;;4976048;28;20438;-78
2023/10/20 00:46:54;;;;;;;6.27;5.60;;;17.50;62.80;;;;;;4968428;28;20451;-78
2023/10/20 00:49:22;;;;;;;6.30;5.70;;;17.50;62.90;;;;;;4974069;28;20445;-78
2023/10/20 00:51:50;;;;;;;6.03;5.43;;;17.50;62.70;;;;;;4961371;28;20464;-79
2023/10/20 00:54:20;;;;;;;7.93;6.00;;;17.50;62.90;;;;;;4969024;28;20470;-78
2023/10/20 00:56:48;;;;;;;7.10;5.40;;;17.50;62.60;;;;;;4980831;28;20454;-79
2023/10/20 00:59:16;;;;;;;7.53;5.20;;;17.50;62.60;;;;;;4975256;28;20426;-78
2023/10/20 01:01:44;;;;;;;5.93;5.33;;;17.50;62.70;;;;;;4982208;28;20465;-78
2023/10/20 01:04:12;;;;;;;6.00;5.40;;;17.50;62.70;;;;;;4966651;28;20486;-78
2023/10/20 01:06:40;;;;;;;5.83;5.03;;;17.50;62.70;;;;;;4982201;28;20469;-78
2023/10/20 01:09:10;;;;;;;6.23;5.47;;;17.50;62.80;;;;;;4971622;28;20450;-78
2023/10/20 01:11:40;;;;;;;6.07;5.37;;;17.50;62.70;;;;;;4971249;28;20470;-79
2023/10/20 01:14:09;;;;;;;6.00;5.37;;;17.50;62.70;;;;;;4974331;28;20477;-78
2023/10/20 01:16:37;;;;;;;6.40;5.57;;;17.50;62.80;;;;;;4975103;28;20447;-78
2023/10/20 01:19:05;;;;;;;6.10;5.50;;;17.50;62.80;;;;;;4975291;28;20484;-78
2023/10/20 01:21:33;;;;;;;6.20;5.60;;;17.50;62.90;;;;;;4977571;28;20554;-77
2023/10/20 01:24:04;;;;;;;6.80;5.33;;;17.50;62.90;;;;;;4978024;28;20583;-77
2023/10/20 01:26:33;;;;;;;7.07;5.83;;;17.50;62.60;;;;;;4974808;28;20520;-78
2023/10/20 01:29:05;;;;;;;6.30;4.63;;;17.50;62.90;;;;;;4978209;28;20449;-78
2023/10/20 01:31:33;;;;;;;7.30;5.47;;;17.50;62.80;;;;;;4979270;28;20473;-77
2023/10/20 01:34:01;;;;;;;5.40;4.90;;;17.50;62.80;;;;;;4975948;28;20470;-78
2023/10/20 01:36:29;;;;;;;5.23;4.73;;;17.50;62.80;;;;;;4982011;28;20509;-78
2023/10/20 01:38:56;;;;;;;6.87;5.60;;;17.50;62.70;;;;;;4975606;28;20485;-78
2023/10/20 01:41:26;;;;;;;6.10;5.50;;;17.50;62.70;;;;;;4985310;28;20477;-79
2023/10/20 01:43:55;;;;;;;6.90;5.70;;;17.50;62.80;;;;;;4994508;28;20464;-79
2023/10/20 01:46:24;;;;;;;5.97;5.20;;;17.50;62.80;;;;;;4990929;28;20478;-78
2023/10/20 01:48:52;;;;;;;7.77;6.07;;;17.50;62.80;;;;;;4969884;28;20534;-79
2023/10/20 01:51:20;;;;;;;8.60;5.07;;;17.50;62.70;;;;;;4977804;28;20469;-77
2023/10/20 01:53:49;;;;;;;6.20;5.43;;;17.50;62.70;;;;;;4981934;28;20544;-79
2023/10/20 01:56:17;;;;;;;8.00;5.83;;;17.50;62.70;;;;;;4975701;28;20463;-77
2023/10/20 01:58:46;;;;;;;5.07;4.57;;;17.50;62.60;;;;;;4992547;28;20446;-79
2023/10/20 02:01:15;;;;;;;5.83;5.23;;;17.50;62.50;;;;;;4985796;28;20561;-78
2023/10/20 02:03:46;;;;;;;5.80;5.30;;;17.40;62.60;;;;;;4981253;28;20473;-79
2023/10/20 02:06:15;;;;;;;6.30;5.60;;;17.50;62.60;;;;;;4976655;28;20451;-79
2023/10/20 02:08:43;;;;;;;6.30;5.53;;;17.50;62.80;;;;;;4982254;28;20449;-79
2023/10/20 02:11:11;;;;;;;8.33;6.00;;;17.50;62.70;;;;;;4973951;28;20469;-77
2023/10/20 02:13:42;;;;;;;5.77;5.27;;;17.40;62.70;;;;;;4969880;28;20486;-77
2023/10/20 02:16:12;;;;;;;6.40;5.50;;;17.40;62.80;;;;;;4972973;28;20451;-78
2023/10/20 02:18:40;;;;;;;6.00;5.30;;;17.50;62.60;;;;;;4968579;28;21009;-78
2023/10/20 02:21:09;;;;;;;7.10;4.93;;;17.40;62.70;;;;;;4970227;28;20529;-79
2023/10/20 02:23:38;;;;;;;7.97;4.93;;;17.40;62.60;;;;;;4979079;28;20431;-78
2023/10/20 02:26:07;;;;;;;5.63;4.90;;;17.40;62.60;;;;;;4977207;28;20503;-78
2023/10/20 02:28:36;;;;;;;5.83;5.00;;;17.40;62.60;;;;;;4973387;28;20577;-77
2023/10/20 02:31:13;;;;;;;5.30;4.80;;;17.40;62.60;;;;;;4976830;28;20499;-77
2023/10/20 02:33:41;;;;;;;5.30;4.70;;;17.40;62.70;;;;;;4969381;28;20500;-77
2023/10/20 02:36:09;;;;;;;6.13;5.53;;;17.40;62.70;;;;;;4967867;28;20446;-77
2023/10/20 02:38:37;;;;;;;5.50;5.00;;;17.40;62.60;;;;;;4964113;28;20462;-77
2023/10/20 02:41:05;;;;;;;5.47;4.90;;;17.40;62.50;;;;;;4968116;28;20474;-77
2023/10/20 02:43:33;;;;;;;5.90;5.30;;;17.40;62.60;;;;;;4969263;28;20434;-77
2023/10/20 02:46:01;;;;;;;5.67;5.17;;;17.40;62.50;;;;;;4968638;28;20439;-77
2023/10/20 02:48:31;;;;;;;5.10;4.53;;;17.40;62.60;;;;;;4976912;28;20526;-77
2023/10/20 02:51:08;;;;;;;4.97;4.47;;;17.40;62.40;;;;;;4969990;28;21027;-77
2023/10/20 02:53:38;;;;;;;5.40;4.90;;;17.40;62.60;;;;;;4964640;28;20565;-76
2023/10/20 02:56:13;;;;;;;5.43;4.83;;;17.40;62.50;;;;;;4965367;28;20457;-77
2023/10/20 02:58:43;;;;;;;5.37;4.90;;;17.40;62.70;;;;;;4975311;28;20446;-78
2023/10/20 03:01:13;;;;;;;4.90;4.50;;;17.40;62.60;;;;;;4967702;28;20565;-77
2023/10/20 03:03:43;;;;;;;6.60;5.20;;;17.40;62.60;;;;;;4976542;28;20529;-77
2023/10/20 03:06:12;;;;;;;5.80;5.20;;;17.40;62.50;;;;;;4965718;28;20450;-77
2023/10/20 03:08:40;;;;;;;6.07;5.30;;;17.40;62.60;;;;;;4961875;28;20446;-78
2023/10/20 03:11:09;;;;;;;5.70;4.77;;;17.40;62.60;;;;;;4974442;28;20479;-77
2023/10/20 03:13:37;;;;;;;5.77;4.60;;;17.40;62.60;;;;;;4957990;28;20444;-78
2023/10/20 03:16:06;;;;;;;5.73;4.60;;;17.40;62.60;;;;;;4965338;28;20446;-78
2023/10/20 03:18:34;;;;;;;6.40;4.80;;;17.40;62.60;;;;;;4971490;28;20486;-77
2023/10/20 03:21:04;;;;;;;5.43;4.37;;;17.40;62.50;;;;;;4983276;28;20493;-77
2023/10/20 03:23:33;;;;;;;11.17;4.83;;;17.40;62.60;;;;;;4969110;28;20538;-77
2023/10/20 03:26:01;;;;;;;5.00;4.50;;;17.40;62.60;;;;;;4967481;28;20476;-76
2023/10/20 03:28:29;;;;;;;4.90;4.40;;;17.40;62.60;;;;;;4972336;28;20451;-77
2023/10/20 03:30:57;;;;;;;4.73;3.93;;;17.40;62.50;;;;;;4967749;28;20561;-77
2023/10/20 03:33:25;;;;;;;4.57;4.17;;;17.40;62.50;;;;;;4971750;28;20435;-77
2023/10/20 03:36:00;;;;;;;5.10;4.70;;;17.40;62.50;;;;;;4959257;28;20478;-77
2023/10/20 03:38:29;;;;;;;5.13;4.67;;;17.40;62.40;;;;;;4970329;28;20437;-78
2023/10/20 03:41:06;;;;;;;6.53;4.70;;;17.40;62.60;;;;;;4967692;28;20471;-78
2023/10/20 03:43:35;;;;;;;4.73;4.33;;;17.30;62.40;;;;;;4966511;28;20470;-77
2023/10/20 03:46:04;;;;;;;5.07;4.67;;;17.40;62.70;;;;;;4963777;28;20459;-77
2023/10/20 03:48:34;;;;;;;4.63;4.23;;;17.40;62.50;;;;;;4970574;28;20447;-78
2023/10/20 03:51:05;;;;;;;4.50;4.10;;;17.40;62.60;;;;;;4972108;28;20466;-76
2023/10/20 03:53:45;;;;;;;4.50;4.10;;;17.30;62.40;;;;;;4959660;28;20509;-76
2023/10/20 03:56:14;;;;;;;4.47;4.10;;;17.40;62.50;;;;;;4965427;28;20814;-76
2023/10/20 03:58:46;;;;;;;4.73;4.30;;;17.40;62.40;;;;;;4966619;28;20441;-77
2023/10/20 04:01:14;;;;;;;4.70;4.27;;;17.40;62.50;;;;;;4972700;28;20489;-77
2023/10/20 04:03:49;;;;;;;4.43;4.03;;;17.40;62.40;;;;;;4970637;28;20443;-77
2023/10/20 04:06:20;;;;;;;5.13;4.63;;;17.40;62.30;;;;;;4982842;28;20487;-77
2023/10/20 04:08:50;;;;;;;4.30;3.90;;;17.30;62.30;;;;;;4972471;28;20443;-77
2023/10/20 04:11:18;;;;;;;4.60;4.20;;;17.40;62.30;;;;;;4972200;28;20462;-77
2023/10/20 04:13:49;;;;;;;4.50;4.10;;;17.30;62.30;;;;;;4968579;28;20450;-77
2023/10/20 04:16:18;;;;;;;4.40;4.00;;;17.30;62.30;;;;;;4979893;28;20478;-78
2023/10/20 04:18:48;;;;;;;3.90;3.60;;;17.40;62.30;;;;;;4980489;28;20517;-78
2023/10/20 04:21:17;;;;;;;4.40;4.00;;;17.40;62.40;;;;;;4972138;28;20473;-77
2023/10/20 04:23:45;;;;;;;4.67;4.27;;;17.40;62.30;;;;;;4974019;28;20490;-77
2023/10/20 04:26:19;;;;;;;4.10;3.70;;;17.40;62.30;;;;;;4974858;28;20520;-77
2023/10/20 04:28:48;;;;;;;4.40;4.00;;;17.40;62.30;;;;;;4981842;28;20560;-77
2023/10/20 04:48:19;;;;;;;4.33;3.93;;;17.30;62.50;;;;;;4979627;28;20474;-78
2023/10/20 04:51:09;;;;;;;3.87;3.50;;;17.30;62.40;;;;;;4969528;28;20883;-77
2023/10/20 04:53:48;;;;;;;4.03;3.63;;;17.30;62.30;;;;;;4971895;28;20461;-78
2023/10/20 04:56:31;;;;;;;3.60;3.30;;;17.30;62.40;;;;;;4964626;28;20475;-77
2023/10/20 04:59:05;;;;;;;3.50;3.30;;;17.30;62.30;;;;;;4977626;28;20453;-77
2023/10/20 05:01:44;;;;;;;3.63;3.33;;;17.30;62.30;;;;;;4961644;28;20474;-77
2023/10/20 05:04:23;;;;;;;3.10;2.90;;;17.30;62.30;;;;;;4990262;28;20450;-77
2023/10/20 05:06:58;;;;;;;3.10;2.90;;;17.30;62.30;;;;;;5008226;28;20425;-78
2023/10/20 05:09:26;;;;;;;3.70;3.43;;;17.30;62.30;;;;;;4984176;28;20453;-77
2023/10/20 05:11:55;;;;;;;3.03;2.83;;;17.30;62.40;;;;;;4992540;28;20461;-77
2023/10/20 05:14:25;;;;;;;3.30;3.10;;;17.30;62.40;;;;;;4978701;28;20446;-77
2023/10/20 05:16:55;;;;;;;3.50;3.30;;;17.30;62.20;;;;;;4978937;28;20610;-78
2023/10/20 05:19:23;;;;;;;3.23;3.03;;;17.30;62.50;;;;;;4984704;28;20446;-77
2023/10/20 05:21:51;;;;;;;3.40;3.10;;;17.30;62.10;;;;;;4978031;28;20470;-77
2023/10/20 05:24:19;;;;;;;3.50;3.20;;;17.30;62.40;;;;;;4980714;28;20437;-76
2023/10/20 05:26:49;;;;;;;2.90;2.70;;;17.30;62.20;;;;;;4992313;28;20438;-77
2023/10/20 05:29:18;;;;;;;2.83;2.63;;;17.30;62.30;;;;;;4987600;28;20441;-78
2023/10/20 05:31:48;;;;;;;2.60;2.50;;;17.30;62.30;;;;;;4979490;28;20469;-77
2023/10/20 05:34:16;;;;;;;3.53;3.23;;;17.30;62.10;;;;;;4978577;28;20514;-78
2023/10/20 05:36:44;;;;;;;2.60;2.50;;;17.30;62.20;;;;;;4976520;28;20508;-78
2023/10/20 05:39:13;;;;;;;2.80;2.70;;;17.30;62.20;;;;;;4986070;28;20450;-77
2023/10/20 05:41:44;;;;;;;3.10;2.90;;;17.30;62.30;;;;;;4977275;28;20469;-77
2023/10/20 05:44:14;;;;;;;2.97;2.77;;;17.30;62.20;;;;;;4986923;28;20509;-77
2023/10/20 05:46:43;;;;;;;3.20;3.00;;;17.30;62.20;;;;;;4976526;28;20447;-78
2023/10/20 05:49:13;;;;;;;2.73;2.63;;;17.30;62.10;;;;;;4990492;28;20454;-77
2023/10/20 05:51:41;;;;;;;3.30;3.10;;;17.30;62.20;;;;;;4991817;28;20477;-78
2023/10/20 05:54:10;;;;;;;2.73;2.60;;;17.30;62.10;;;;;;4995852;28;20456;-77
2023/10/20 05:56:38;;;;;;;2.73;2.53;;;17.30;62.30;;;;;;4979203;28;20497;-76
2023/10/20 05:59:07;;;;;;;2.90;2.70;;;17.30;62.20;;;;;;4982325;28;20456;-78
2023/10/20 06:01:36;;;;;;;2.67;2.53;;;17.30;62.10;;;;;;4968335;28;20473;-77
2023/10/20 06:04:05;;;;;;;2.67;2.47;;;17.20;62.20;;;;;;4988897;28;20458;-78
2023/10/20 06:06:35;;;;;;;2.63;2.47;;;17.30;62.30;;;;;;4982744;28;20466;-79
2023/10/20 06:09:06;;;;;;;2.53;2.40;;;17.30;62.30;;;;;;4984458;28;20489;-79
2023/10/20 06:11:35;;;;;;;2.60;2.40;;;17.30;62.30;;;;;;4962981;28;20470;-76
2023/10/20 06:14:04;;;;;;;2.40;2.30;;;17.30;62.40;;;;;;4979208;28;20535;-79
2023/10/20 06:16:32;;;;;;;3.03;2.73;;;17.30;62.20;;;;;;4987219;28;20473;-79
2023/10/20 06:19:00;;;;;;;2.37;2.27;;;17.20;62.30;;;;;;4987751;28;20454;-79
2023/10/20 06:21:29;;;;;;;2.40;2.20;;;17.30;62.40;;;;;;4991774;28;20468;-78
2023/10/20 06:23:59;;;;;;;2.20;2.10;;;17.30;62.30;;;;;;4972007;28;20450;-77
2023/10/20 06:26:27;;;;;;;2.40;2.20;;;17.30;62.20;;;;;;4981816;28;20481;-78
2023/10/20 06:28:55;;;;;;;2.17;2.07;;;17.30;62.30;;;;;;4976274;28;20441;-77
2023/10/20 06:31:41;;;;;;;3.03;2.80;;;17.30;62.40;;;;;;4976566;28;20513;-77
2023/10/20 06:34:19;;;;;;;2.13;2.03;;;17.30;62.20;;;;;;4976116;28;20457;-77
2023/10/20 06:36:57;;;;;;;2.87;2.67;;;17.30;62.40;;;;;;4977049;28;20470;-79
2023/10/20 06:39:27;;;;;;;2.17;2.07;;;17.30;62.40;;;;;;4984493;28;20445;-80
2023/10/20 06:41:55;;;;;;;2.20;2.10;;;17.20;62.20;;;;;;4977700;28;20505;-80
2023/10/20 06:44:22;;;;;;;2.30;2.20;;;17.30;62.40;;;;;;4971178;28;20478;-78
2023/10/20 06:46:52;;;;;;;2.20;2.10;;;17.30;62.40;;;;;;4961677;28;20479;-79
2023/10/20 06:49:20;;;;;;;2.97;2.40;;;17.30;62.60;;;;;;4964338;28;20450;-78
2023/10/20 06:51:49;;;;;;;3.13;2.40;;;17.30;63.00;;;;;;4981773;28;20521;-78
2023/10/20 06:54:17;;;;;;;6.63;2.57;;;17.30;62.90;;;;;;4975563;28;20478;-78
2023/10/20 06:56:47;;;;;;;2.03;1.90;;;17.30;62.90;;;;;;4981248;28;20526;-79
2023/10/20 06:59:15;;;;;;;3.50;2.33;;;17.30;62.90;;;;;;4975486;28;20537;-79
2023/10/20 07:01:43;;;;;;;2.37;2.27;;;17.30;62.70;;;;;;4975474;28;20996;-79
2023/10/20 07:04:12;;;;;;;3.20;1.83;;;17.30;62.90;;;;;;4974055;28;20456;-84
2023/10/20 07:06:44;;;;;;;1.97;1.87;;;17.30;62.80;;;;;;4967880;28;20457;-80
2023/10/20 07:09:15;;;;;;;2.33;2.20;;;17.30;62.70;;;;;;4974171;28;20915;-81
2023/10/20 07:11:43;;;;;;;2.50;2.30;;;17.30;62.90;;;;;;4971436;28;20566;-76
2023/10/20 07:14:13;;;;;;;2.07;1.97;;;17.30;62.90;;;;;;4972582;28;20438;-78
2023/10/20 07:16:42;;;;;;;3.50;2.20;;;17.40;62.90;;;;;;4974624;28;20557;-77
2023/10/20 07:19:10;;;;;;;2.30;2.20;;;17.30;62.70;;;;;;4974016;28;20517;-76
2023/10/20 07:21:38;;;;;;;2.57;2.37;;;17.30;62.70;;;;;;4972389;28;20474;-79
2023/10/20 07:24:07;;;;;;;2.70;2.43;;;17.30;62.70;;;;;;4976480;28;20470;-78
2023/10/20 07:26:35;;;;;;;2.40;2.13;;;17.40;62.90;;;;;;4975575;28;20446;-81
2023/10/20 07:29:03;;;;;;;4.10;2.20;;;17.40;63.10;;;;;;4975621;28;20505;-78
2023/10/20 07:31:34;;;;;;;5.03;2.23;;;17.30;63.00;;;;;;4980099;28;20470;-79
2023/10/20 07:34:04;;;;;;;2.80;1.70;;;17.30;63.00;;;;;;4975220;28;20458;-76
2023/10/20 07:36:32;;;;;;;3.80;2.10;;;17.40;63.00;;;;;;4979010;28;20466;-79
2023/10/20 07:39:00;;;;;;;5.33;1.90;;;17.40;63.10;;;;;;4977862;28;20445;-77
2023/10/20 07:41:28;;;;;;;2.40;2.30;;;17.40;63.10;;;;;;4979361;28;20567;-83
2023/10/20 07:43:58;;;;;;;2.90;2.20;;;17.40;63.90;;;;;;4983183;28;20458;-80
2023/10/20 07:46:27;;;;;;;1.90;1.80;;;17.40;63.00;;;;;;4977907;28;20537;-78
2023/10/20 07:48:56;;;;;;;2.10;2.00;;;17.30;63.00;;;;;;4977756;28;20840;-80
2023/10/20 07:51:28;;;;;;;2.07;1.97;;;17.40;63.10;;;;;;4977903;28;20477;-80
2023/10/20 07:53:56;;;;;;;4.07;2.20;;;17.30;63.10;;;;;;4974710;28;20473;-78
2023/10/20 07:56:25;;;;;;;3.83;2.07;;;17.30;63.20;;;;;;4969692;28;20549;-78
2023/10/20 07:58:53;;;;;;;2.03;1.90;;;17.30;63.30;;;;;;4970220;28;20537;-79
2023/10/20 08:01:21;;;;;;;2.60;2.40;;;17.30;63.20;;;;;;4971353;28;20536;-75
2023/10/20 08:03:49;;;;;;;8.00;2.00;;;17.40;63.30;;;;;;4971134;28;20505;-77
2023/10/20 08:06:19;;;;;;;3.57;2.17;;;17.30;63.00;;;;;;4973670;28;20650;-77
2023/10/20 08:08:48;;;;;;;2.60;2.30;;;17.40;63.20;;;;;;4976960;28;20458;-78
2023/10/20 08:11:16;;;;;;;3.03;2.27;;;17.40;63.10;;;;;;4981580;28;20560;-77
2023/10/20 08:13:50;;;;;;;2.80;1.90;;;17.30;63.10;;;;;;4982158;28;20446;-79
2023/10/20 08:16:20;;;;;;;3.90;2.13;;;17.30;63.10;;;;;;4983157;28;20455;-79
2023/10/20 08:18:48;;;;;;;3.10;2.00;;;17.30;63.20;;;;;;4980525;28;20881;-79
2023/10/20 08:21:17;;;;;;;2.73;2.07;;;17.30;63.10;;;;;;4979870;28;20481;-80
2023/10/20 08:23:46;;;;;;;3.90;1.70;;;17.30;63.10;;;;;;4976620;28;20450;-79
2023/10/20 08:26:15;;;;;;;2.00;1.90;;;17.30;63.10;;;;;;4979058;28;20450;-78
2023/10/20 08:28:43;;;;;;;2.40;2.20;;;17.30;63.30;;;;;;4976371;28;20440;-79
2023/10/20 08:31:13;;;;;;;4.10;2.00;;;17.30;63.90;;;;;;4977382;28;20497;-79
2023/10/20 08:33:42;;;;;;;3.17;2.10;;;17.30;63.10;;;;;;4978137;28;20465;-79
2023/10/20 08:36:12;;;;;;;2.40;1.90;;;17.30;63.20;;;;;;4980138;28;20505;-79
2023/10/20 08:38:40;;;;;;;2.80;2.07;;;17.30;63.10;;;;;;4971827;28;20461;-78
2023/10/20 08:41:11;;;;;;;2.80;2.00;;;17.30;63.10;;;;;;4976011;28;20516;-78
2023/10/20 08:43:41;;;;;;;2.00;1.80;;;17.30;63.10;;;;;;4974170;28;20474;-78
2023/10/20 08:46:12;;;;;;;2.27;2.00;;;17.30;63.10;;;;;;4974712;28;20457;-78
2023/10/20 08:48:39;;;;;;;3.10;2.33;;;17.30;63.20;;;;;;4978126;28;20442;-77
2023/10/20 08:54:08;;;;;;;1.90;1.80;;;17.30;63.00;;;;;;4975884;28;20937;-80
2023/10/20 08:56:40;;;;;;;2.00;1.90;;;17.30;63.00;;;;;;4985658;28;20549;-80
2023/10/20 08:59:20;;;;;;;10.93;2.50;;;17.30;63.00;;;;;;4987587;28;20466;-80
2023/10/20 09:01:56;;;;;;;3.43;2.17;;;17.30;63.10;;;;;;4967221;29;20479;-81
2023/10/20 09:04:26;;;;;;;2.30;2.20;;;17.30;63.10;;;;;;4975807;28;20457;-78
2023/10/20 09:06:55;;;;;;;6.37;1.80;;;17.30;62.90;;;;;;4981743;28;20469;-78
2023/10/20 09:09:29;;;;;;;2.47;2.27;;;17.30;63.00;;;;;;4983076;28;20457;-79
2023/10/20 09:12:00;;;;;;;2.17;1.93;;;17.30;62.90;;;;;;4979032;28;20481;-78
2023/10/20 09:14:29;;;;;;;4.00;2.37;;;17.30;63.00;;;;;;4982280;28;20509;-80
2023/10/20 09:17:01;;;;;;;1.70;1.60;;;17.30;62.90;;;;;;4984107;28;20470;-80
2023/10/20 09:19:32;;;;;;;3.73;2.40;;;17.30;62.80;;;;;;4980949;28;20454;-78
2023/10/20 09:22:01;;;;;;;2.53;1.90;;;17.20;63.00;;;;;;4981954;28;20497;-79
2023/10/20 09:24:34;;;;;;;1.77;1.63;;;17.30;63.10;;;;;;4982924;28;20457;-78
2023/10/20 09:27:04;;;;;;;3.17;2.10;;;17.30;62.80;;;;;;4982742;28;20496;-78
2023/10/20 09:29:33;;;;;;;2.40;2.20;;;17.30;62.90;;;;;;4983529;28;20442;-79
2023/10/20 09:32:02;;;;;;;2.00;1.90;;;17.30;62.90;;;;;;4982760;28;20591;-79
2023/10/20 09:34:30;;;;;;;2.70;1.70;;;17.20;62.90;;;;;;4980905;28;20438;-78
2023/10/20 09:37:00;;;;;;;3.13;1.90;;;17.20;62.70;;;;;;4980106;28;20446;-78
2023/10/20 09:39:32;;;;;;;3.10;2.70;;;17.30;62.80;;;;;;4978079;28;20454;-78
2023/10/20 09:42:01;;;;;;;5.00;2.40;;;17.20;62.60;;;;;;4981532;28;20462;-78
2023/10/20 09:44:46;;;;;;;4.77;2.17;;;17.30;62.80;;;;;;4981316;28;20493;-78
2023/10/20 09:47:23;;;;;;;2.10;2.00;;;17.20;62.60;;;;;;4983898;28;20429;-78
2023/10/20 09:49:52;;;;;;;2.10;2.00;;;17.30;62.70;;;;;;4980289;28;20446;-78
2023/10/20 09:52:20;;;;;;;2.70;2.10;;;17.30;62.60;;;;;;4981764;28;20438;-79
2023/10/20 09:54:50;;;;;;;2.47;2.30;;;17.20;62.70;;;;;;4983513;28;20446;-80
2023/10/20 09:57:18;;;;;;;2.20;2.00;;;17.20;62.60;;;;;;4981699;28;20477;-78
2023/10/20 09:59:52;;;;;;;3.10;2.50;;;17.20;62.60;;;;;;4980672;28;20434;-78
2023/10/20 10:02:27;;;;;;;2.13;1.93;;;17.30;62.60;;;;;;4978942;28;20435;-78
2023/10/20 10:04:56;;;;;;;3.50;2.60;;;17.30;62.70;;;;;;4978500;28;20442;-78
2023/10/20 10:07:28;;;;;;;2.20;2.10;;;17.20;62.70;;;;;;4978627;28;20439;-79
2023/10/20 10:09:57;;;;;;;2.50;2.30;;;17.20;62.60;;;;;;4976820;28;20446;-77
2023/10/20 10:12:25;;;;;;;2.30;2.10;;;17.20;62.60;;;;;;4976793;28;20478;-78
2023/10/20 10:14:59;;;;;;;2.30;2.17;;;17.20;62.50;;;;;;4977635;28;20450;-78
2023/10/20 10:17:27;;;;;;;4.33;2.50;;;17.20;62.70;;;;;;4980806;28;20509;-81
2023/10/20 10:19:56;;;;;;;2.00;1.90;;;17.20;62.70;;;;;;4977525;28;20450;-78
2023/10/20 10:22:26;;;;;;;4.53;2.67;;;17.20;62.60;;;;;;4976824;28;20542;-78
2023/10/20 10:24:55;;;;;;;1.90;1.80;;;17.20;62.70;;;;;;4977985;28;20504;-79
2023/10/20 10:27:26;;;;;;;4.63;2.57;;;17.20;62.70;;;;;;4977849;28;20451;-78
2023/10/20 10:29:57;;;;;;;2.43;2.27;;;17.20;62.70;;;;;;4978029;28;20964;-78
2023/10/20 10:32:31;;;;;;;2.50;2.40;;;17.20;62.60;;;;;;4976940;28;20446;-76
2023/10/20 10:34:59;;;;;;;2.30;2.20;;;17.20;62.50;;;;;;4975612;28;20456;-78
2023/10/20 10:37:32;;;;;;;4.20;2.27;;;17.20;62.60;;;;;;4977632;28;20493;-78
2023/10/20 10:40:08;;;;;;;2.50;2.30;;;17.30;62.60;;;;;;4977238;28;20450;-79
2023/10/20 10:42:40;;;;;;;2.50;2.30;;;17.30;62.60;;;;;;4977464;28;20454;-78
2023/10/20 10:45:21;;;;;;;2.40;2.20;;;17.20;62.70;;;;;;4976736;28;20503;-79
2023/10/20 10:47:52;;;;;;;2.80;2.60;;;17.20;62.60;;;;;;4976359;28;20470;-79
2023/10/20 10:50:21;;;;;;;2.60;2.30;;;17.20;62.50;;;;;;4977014;28;20557;-79
2023/10/20 10:52:50;;;;;;;2.87;2.50;;;17.20;62.50;;;;;;4976031;28;20458;-77
2023/10/20 10:55:20;;;;;;;2.90;2.50;;;17.20;62.40;;;;;;4975664;28;20538;-78
2023/10/20 10:57:48;;;;;;;5.13;2.63;;;17.20;62.60;;;;;;4975264;28;20454;-78
2023/10/20 11:00:17;;;;;;;2.30;2.10;;;17.20;62.40;;;;;;4976798;28;20509;-78
2023/10/20 11:02:46;;;;;;;2.73;2.50;;;17.20;62.50;;;;;;4976731;28;20469;-78
2023/10/20 11:05:15;;;;;;;2.40;2.20;;;17.20;62.50;;;;;;4956963;28;20475;-80
2023/10/20 11:07:56;;;;;;;3.17;2.60;;;17.20;62.50;;;;;;4975691;28;20470;-78
2023/10/20 11:10:26;;;;;;;2.20;2.10;;;17.20;62.60;;;;;;4976489;28;20469;-79
2023/10/20 11:12:55;;;;;;;2.33;2.23;;;17.20;62.60;;;;;;4975010;28;20454;-78
2023/10/20 11:15:28;;;;;;;2.97;2.50;;;17.20;62.60;;;;;;4975049;28;20450;-79
2023/10/20 11:17:58;;;;;;;3.30;2.90;;;17.20;62.60;;;;;;4975524;28;20473;-78
2023/10/20 11:20:28;;;;;;;3.70;3.17;;;17.20;62.60;;;;;;4974659;28;20473;-79
2023/10/20 11:22:58;;;;;;;2.83;2.63;;;17.20;62.50;;;;;;4980348;28;20448;-78
2023/10/20 11:25:26;;;;;;;3.00;2.77;;;17.10;62.60;;;;;;4994207;28;20438;-78
2023/10/20 11:27:55;;;;;;;4.30;2.60;;;17.20;62.60;;;;;;4997539;28;20448;-81
2023/10/20 11:30:24;;;;;;;6.63;2.13;;;17.10;62.50;;;;;;4985487;28;20489;-78
2023/10/20 11:32:53;;;;;;;2.33;2.23;;;17.10;62.40;;;;;;4976792;28;20465;-77
2023/10/20 11:35:24;;;;;;;3.13;2.60;;;17.10;62.40;;;;;;4976111;28;20474;-77
2023/10/20 11:37:55;;;;;;;3.40;3.10;;;17.10;62.50;;;;;;4975382;28;20417;-76
2023/10/20 11:40:23;;;;;;;3.43;3.13;;;17.10;62.60;;;;;;4974579;28;20493;-77
2023/10/20 11:42:50;;;;;;;3.07;2.77;;;17.10;62.60;;;;;;4974885;28;20451;-77
2023/10/20 11:45:20;;;;;;;5.73;2.90;;;17.10;62.70;;;;;;4974355;28;20470;-77
2023/10/20 11:47:48;;;;;;;3.70;3.00;;;17.10;62.80;;;;;;4974700;28;20454;-77
2023/10/20 11:50:18;;;;;;;3.93;3.27;;;17.10;62.60;;;;;;4976640;28;20521;-78
2023/10/20 11:52:47;;;;;;;2.80;2.50;;;17.10;62.60;;;;;;4975551;28;20500;-77
2023/10/20 11:55:16;;;;;;;4.07;3.30;;;17.10;62.70;;;;;;4974494;28;20454;-78
2023/10/20 11:57:44;;;;;;;3.50;2.80;;;17.10;62.50;;;;;;4974063;28;20450;-78
2023/10/20 12:00:14;;;;;;;2.80;2.60;;;17.10;62.50;;;;;;4974228;28;20486;-77
2023/10/20 12:02:43;;;;;;;4.23;3.07;;;17.10;62.60;;;;;;4975417;28;20445;-78
2023/10/20 12:05:11;;;;;;;5.20;3.13;;;17.00;62.60;;;;;;4975756;28;20449;-78
2023/10/20 12:07:40;;;;;;;3.00;2.80;;;17.00;62.60;;;;;;4975231;28;20505;-78
2023/10/20 12:10:09;;;;;;;3.03;2.83;;;17.10;62.60;;;;;;4962526;28;20463;-77
2023/10/20 12:12:39;;;;;;;3.00;2.80;;;17.10;62.50;;;;;;4990139;28;20445;-77
2023/10/20 12:15:08;;;;;;;3.20;2.90;;;17.10;62.80;;;;;;4993497;28;20456;-78
2023/10/20 12:17:36;;;;;;;3.93;2.80;;;17.10;62.70;;;;;;4976607;28;20510;-77
2023/10/20 12:20:06;;;;;;;3.33;2.87;;;17.10;62.60;;;;;;4974846;28;20529;-78
2023/10/20 12:22:34;;;;;;;3.47;3.17;;;17.10;62.60;;;;;;4974366;28;20573;-78
2023/10/20 12:25:02;;;;;;;4.63;3.23;;;17.10;62.60;;;;;;4971577;28;20450;-78
2023/10/20 12:27:31;;;;;;;3.23;2.97;;;17.10;62.50;;;;;;4975141;28;20521;-80
2023/10/20 12:30:00;;;;;;;2.93;2.73;;;17.10;62.50;;;;;;4974309;28;20534;-79
2023/10/20 12:32:28;;;;;;;3.60;3.30;;;17.10;62.40;;;;;;4973662;28;20454;-77
2023/10/20 12:34:56;;;;;;;6.57;3.07;;;17.10;62.40;;;;;;4975346;28;20450;-77
2023/10/20 12:37:25;;;;;;;3.40;3.20;;;17.10;62.50;;;;;;4974730;28;20434;-80
2023/10/20 12:39:53;;;;;;;3.20;3.00;;;17.10;62.40;;;;;;4977987;28;20473;-79
2023/10/20 12:42:20;;;;;;;4.27;3.13;;;17.10;62.40;;;;;;4991291;28;20533;-80
2023/10/20 12:44:48;;;;;;;3.03;2.83;;;17.10;62.50;;;;;;4972952;28;20482;-78
2023/10/20 12:47:19;;;;;;;3.50;3.20;;;17.10;62.50;;;;;;4973947;28;20548;-78
2023/10/20 12:49:47;;;;;;;3.83;3.43;;;17.10;62.50;;;;;;4973344;28;20446;-79
2023/10/20 12:52:15;;;;;;;4.27;3.50;;;17.10;62.50;;;;;;4974555;28;20484;-79
2023/10/20 12:54:43;;;;;;;4.10;3.70;;;17.10;62.50;;;;;;4974051;28;20874;-80
2023/10/20 12:57:16;;;;;;;4.90;3.40;;;17.10;62.40;;;;;;4977914;28;20478;-78
2023/10/20 12:59:44;;;;;;;3.50;3.10;;;17.10;62.50;;;;;;4977528;28;20493;-79
2023/10/20 13:02:12;;;;;;;3.33;3.13;;;17.10;63.20;;;;;;4976560;28;20462;-79
2023/10/20 13:04:42;;;;;;;4.33;3.23;;;17.10;62.50;;;;;;4979143;28;20453;-78
2023/10/20 13:07:10;;;;;;;4.17;3.77;;;17.10;62.50;;;;;;4978788;28;20442;-78
2023/10/20 13:09:41;;;;;;;6.23;3.57;;;17.10;62.50;;;;;;4977229;28;20505;-78
2023/10/20 13:12:10;;;;;;;4.00;3.70;;;17.10;62.60;;;;;;4975630;28;20438;-78
2023/10/20 13:14:37;;;;;;;3.50;3.20;;;17.10;62.60;;;;;;4977602;28;20509;-79
2023/10/20 13:17:06;;;;;;;3.93;3.20;;;17.10;62.70;;;;;;4978679;28;20450;-78
2023/10/20 13:19:37;;;;;;;4.17;3.30;;;17.10;62.60;;;;;;4976732;28;20470;-78
2023/10/20 13:22:07;;;;;;;3.30;3.10;;;17.10;62.50;;;;;;4973014;28;20462;-78